createdAt,value
2018-07-12T00:02:36.324Z,0.00
2018-07-12T00:03:36.311Z,0.00
2018-07-12T00:04:36.136Z,0.00
2018-07-12T00:05:36.128Z,0.00
2018-07-12T00:06:35.965Z,0.00
2018-07-12T00:09:17.821Z,0.00
2018-07-12T00:10:17.824Z,0.00
2018-07-12T00:11:17.630Z,0.00
2018-07-12T00:13:59.806Z,0.00
2018-07-12T00:30:57.867Z,0.00
2018-07-12T00:31:57.757Z,0.00
2018-07-12T00:32:57.690Z,0.00
2018-07-12T00:33:57.626Z,0.00
2018-07-12T00:34:57.548Z,0.00
2018-07-12T00:35:57.455Z,0.00
2018-07-12T00:36:57.374Z,0.00
2018-07-12T00:37:57.288Z,0.00
2018-07-12T00:38:57.221Z,0.00
2018-07-12T00:39:57.159Z,0.00
2018-07-12T00:40:57.055Z,0.00
2018-07-12T00:41:56.971Z,0.00
2018-07-12T00:42:56.901Z,0.00
2018-07-12T00:43:56.826Z,0.00
2018-07-12T00:44:56.776Z,0.00
2018-07-12T00:45:56.655Z,0.00
2018-07-12T00:46:56.583Z,0.00
2018-07-12T00:47:56.507Z,0.00
2018-07-12T00:48:56.455Z,0.00
2018-07-12T00:49:56.364Z,0.00
2018-07-12T00:50:56.280Z,0.00
2018-07-12T00:51:56.190Z,0.00
2018-07-12T00:52:56.113Z,0.00
2018-07-12T00:53:56.026Z,0.00
2018-07-12T00:54:55.987Z,0.00
2018-07-12T00:55:55.891Z,0.00
2018-07-12T00:56:55.801Z,0.00
2018-07-12T00:57:55.711Z,0.00
2018-07-12T01:00:37.813Z,0.00
2018-07-12T01:01:37.723Z,0.00
2018-07-12T01:02:37.638Z,0.00
2018-07-12T01:03:37.580Z,0.00
2018-07-12T01:04:37.484Z,0.00
2018-07-12T01:05:37.430Z,0.00
2018-07-12T01:06:37.339Z,0.00
2018-07-12T01:07:37.288Z,0.00
2018-07-12T01:08:37.173Z,0.00
2018-07-12T01:09:37.105Z,0.00
2018-07-12T01:10:37.038Z,0.00
2018-07-12T01:11:36.958Z,0.00
2018-07-12T01:12:36.876Z,0.00
2018-07-12T01:13:36.778Z,0.00
2018-07-12T01:14:36.695Z,0.00
2018-07-12T01:15:36.628Z,0.00
2018-07-12T01:16:36.564Z,0.00
2018-07-12T01:17:36.484Z,0.00
2018-07-12T01:18:36.396Z,0.00
2018-07-12T01:19:36.308Z,0.00
2018-07-12T01:20:36.219Z,0.00
2018-07-12T01:21:36.181Z,0.00
2018-07-12T01:22:36.103Z,0.00
2018-07-12T01:23:36.003Z,0.00
2018-07-12T01:24:35.919Z,0.00
2018-07-12T01:25:35.837Z,0.00
2018-07-12T01:26:35.849Z,0.00
2018-07-12T01:27:35.728Z,0.00
2018-07-12T01:28:35.599Z,0.00
2018-07-12T01:29:35.518Z,0.00
2018-07-12T01:30:35.442Z,0.00
2018-07-12T01:31:35.372Z,0.00
2018-07-12T01:32:35.317Z,0.00
2018-07-12T01:35:17.342Z,0.00
2018-07-12T01:37:59.329Z,0.00
2018-07-12T01:38:59.241Z,0.00
2018-07-12T01:39:59.160Z,0.00
2018-07-12T01:40:59.080Z,0.00
2018-07-12T01:41:59.022Z,0.00
2018-07-12T01:42:58.924Z,0.00
2018-07-12T01:43:58.852Z,0.00
2018-07-12T01:44:58.777Z,0.00
2018-07-12T01:45:58.684Z,0.00
2018-07-12T01:46:58.629Z,0.00
2018-07-12T01:47:58.565Z,0.00
2018-07-12T01:48:58.449Z,0.00
2018-07-12T01:49:58.363Z,0.00
2018-07-12T01:50:58.287Z,0.00
2018-07-12T01:51:58.214Z,0.00
2018-07-12T01:52:58.141Z,0.00
2018-07-12T01:53:58.064Z,0.00
2018-07-12T01:56:22.822Z,0.00
2018-07-12T01:57:22.757Z,0.00
2018-07-12T01:58:22.696Z,0.00
2018-07-12T01:59:22.591Z,0.00
2018-07-12T02:00:22.500Z,0.00
2018-07-12T02:01:22.427Z,0.00
2018-07-12T02:02:22.405Z,0.00
2018-07-12T02:03:22.276Z,0.00
2018-07-12T02:04:22.401Z,0.00
2018-07-12T02:05:22.120Z,0.00
2018-07-12T02:06:22.029Z,0.00
2018-07-12T02:07:21.972Z,0.00
2018-07-12T02:08:21.869Z,0.00
2018-07-12T02:09:21.840Z,0.00
2018-07-12T02:10:21.713Z,0.00
2018-07-12T02:11:21.645Z,0.00
2018-07-12T02:12:21.583Z,0.00
2018-07-12T02:13:21.482Z,0.00
2018-07-12T02:14:21.433Z,0.00
2018-07-12T02:15:21.329Z,0.00
2018-07-12T02:16:21.241Z,0.00
2018-07-12T02:19:03.379Z,0.00
2018-07-12T02:20:03.248Z,0.00
2018-07-12T02:21:03.168Z,0.00
2018-07-12T02:22:03.098Z,0.00
2018-07-12T02:23:02.998Z,0.00
2018-07-12T02:24:02.937Z,0.00
2018-07-12T02:25:02.861Z,0.00
2018-07-12T02:26:02.812Z,0.00
2018-07-12T02:27:02.783Z,0.00
2018-07-12T02:28:02.620Z,0.00
2018-07-12T02:29:02.574Z,0.00
2018-07-12T02:30:02.477Z,0.00
2018-07-12T02:31:02.383Z,0.00
2018-07-12T02:32:02.303Z,0.00
2018-07-12T02:33:02.225Z,0.00
2018-07-12T02:35:44.353Z,0.00
2018-07-12T02:36:44.272Z,0.00
2018-07-12T02:37:44.173Z,0.00
2018-07-12T02:38:44.104Z,0.00
2018-07-12T02:39:44.024Z,0.00
2018-07-12T02:40:43.935Z,0.00
2018-07-12T02:41:43.853Z,0.00
2018-07-12T02:42:43.788Z,0.00
2018-07-12T02:43:43.709Z,0.00
2018-07-12T02:44:43.641Z,0.00
2018-07-12T02:45:43.558Z,0.00
2018-07-12T02:48:25.868Z,0.00
2018-07-12T02:49:25.763Z,0.00
2018-07-12T02:50:25.673Z,0.00
2018-07-12T02:51:25.625Z,0.00
2018-07-12T02:52:25.517Z,0.00
2018-07-12T02:53:25.449Z,4.00
2018-07-12T02:54:25.352Z,4.00
2018-07-12T02:57:38.849Z,4.00
2018-07-12T03:00:20.864Z,8.00
2018-07-12T03:01:20.767Z,4.00
2018-07-12T03:02:20.694Z,8.00
2018-07-12T03:03:20.606Z,8.00
2018-07-12T03:04:20.527Z,8.00
2018-07-12T03:05:20.462Z,12.00
2018-07-12T03:06:20.377Z,12.00
2018-07-12T03:07:20.305Z,12.00
2018-07-12T03:08:20.206Z,12.00
2018-07-12T03:09:20.139Z,16.00
2018-07-12T03:10:20.056Z,16.00
2018-07-12T03:11:19.982Z,20.00
2018-07-12T03:12:19.896Z,24.00
2018-07-12T03:13:19.819Z,28.00
2018-07-12T03:14:19.730Z,28.00
2018-07-12T03:15:19.664Z,32.00
2018-07-12T03:16:19.615Z,36.00
2018-07-12T03:17:19.495Z,36.00
2018-07-12T03:18:19.410Z,40.00
2018-07-12T03:19:19.337Z,44.00
2018-07-12T03:20:19.257Z,52.00
2018-07-12T03:21:20.218Z,56.00
2018-07-12T03:22:19.085Z,64.00
2018-07-12T03:23:20.045Z,72.00
2018-07-12T03:24:18.947Z,80.00
2018-07-12T03:25:18.875Z,84.00
2018-07-12T03:26:18.770Z,96.00
2018-07-12T03:27:18.721Z,104.00
2018-07-12T03:28:18.653Z,112.00
2018-07-12T03:29:18.554Z,128.00
2018-07-12T03:30:18.462Z,136.00
2018-07-12T03:31:18.398Z,148.00
2018-07-12T03:32:18.308Z,164.00
2018-07-12T03:33:18.245Z,172.00
2018-07-12T03:34:18.161Z,188.00
2018-07-12T03:35:18.086Z,200.00
2018-07-12T03:36:17.981Z,212.00
2018-07-12T03:37:17.909Z,228.00
2018-07-12T03:38:17.858Z,248.00
2018-07-12T03:39:17.756Z,264.00
2018-07-12T03:40:17.680Z,280.00
2018-07-12T03:41:17.603Z,296.00
2018-07-12T03:42:17.512Z,316.00
2018-07-12T03:43:17.463Z,336.00
2018-07-12T03:44:17.354Z,360.00
2018-07-12T03:45:17.298Z,380.00
2018-07-12T03:46:17.197Z,404.00
2018-07-12T03:47:17.132Z,428.00
2018-07-12T03:48:17.060Z,448.00
2018-07-12T03:49:16.969Z,476.00
2018-07-12T03:50:16.898Z,500.00
2018-07-12T03:51:16.811Z,528.00
2018-07-12T03:52:16.718Z,552.00
2018-07-12T03:53:16.647Z,576.00
2018-07-12T03:54:16.573Z,604.00
2018-07-12T03:55:16.510Z,632.00
2018-07-12T03:56:16.403Z,664.00
2018-07-12T03:57:16.324Z,688.00
2018-07-12T03:58:16.245Z,720.00
2018-07-12T03:59:16.335Z,744.00
2018-07-12T04:00:16.115Z,772.00
2018-07-12T04:01:16.023Z,804.00
2018-07-12T04:02:15.922Z,836.00
2018-07-12T04:03:15.852Z,864.00
2018-07-12T04:04:15.864Z,896.00
2018-07-12T04:05:15.714Z,920.00
2018-07-12T04:06:15.610Z,944.00
2018-07-12T04:07:15.545Z,972.00
2018-07-12T04:08:15.448Z,1004.00
2018-07-12T04:09:15.388Z,1032.00
2018-07-12T04:10:15.326Z,1056.00
2018-07-12T04:11:15.223Z,1084.00
2018-07-12T04:12:15.139Z,1112.00
2018-07-12T04:13:15.057Z,1144.00
2018-07-12T04:14:14.998Z,1176.00
2018-07-12T04:15:14.928Z,1212.00
2018-07-12T04:16:14.812Z,1244.00
2018-07-12T04:17:14.764Z,1280.00
2018-07-12T04:18:14.652Z,1316.00
2018-07-12T04:19:14.585Z,1348.00
2018-07-12T04:20:14.542Z,1388.00
2018-07-12T04:21:14.428Z,1420.00
2018-07-12T04:22:14.349Z,1460.00
2018-07-12T04:24:56.366Z,1560.00
2018-07-12T04:25:56.318Z,1596.00
2018-07-12T04:26:56.201Z,1640.00
2018-07-12T04:27:56.125Z,1672.00
2018-07-12T04:28:56.054Z,1712.00
2018-07-12T04:29:55.986Z,1748.00
2018-07-12T04:30:55.899Z,1788.00
2018-07-12T04:33:37.860Z,1884.00
2018-07-12T04:34:37.823Z,1920.00
2018-07-12T04:35:37.914Z,1960.00
2018-07-12T04:36:37.650Z,2000.00
2018-07-12T04:37:37.572Z,2032.00
2018-07-12T04:38:37.486Z,2060.00
2018-07-12T04:39:37.381Z,2092.00
2018-07-12T04:40:37.354Z,2128.00
2018-07-12T04:41:37.248Z,2156.00
2018-07-12T04:42:37.160Z,2204.00
2018-07-12T04:43:37.071Z,2240.00
2018-07-12T04:44:36.995Z,2280.00
2018-07-12T04:45:36.917Z,2332.00
2018-07-12T04:46:36.945Z,2384.00
2018-07-12T04:47:36.756Z,2456.00
2018-07-12T04:48:36.687Z,2508.00
2018-07-12T04:49:36.602Z,2564.00
2018-07-12T04:50:36.539Z,2608.00
2018-07-12T04:51:36.445Z,2676.00
2018-07-12T04:52:36.375Z,2776.00
2018-07-12T04:53:36.277Z,2852.00
2018-07-12T04:54:36.202Z,2900.00
2018-07-12T04:55:36.117Z,2960.00
2018-07-12T04:56:36.085Z,3040.00
2018-07-12T04:57:35.970Z,3064.00
2018-07-12T04:58:36.006Z,3136.00
2018-07-12T04:59:35.802Z,3188.00
2018-07-12T05:00:35.723Z,3240.00
2018-07-12T05:01:35.666Z,3304.00
2018-07-12T05:02:35.609Z,3324.00
2018-07-12T05:03:35.491Z,3400.00
2018-07-12T05:04:35.409Z,3512.00
2018-07-12T05:05:35.338Z,3564.00
2018-07-12T05:06:35.262Z,3576.00
2018-07-12T05:07:35.176Z,3540.00
2018-07-12T05:08:36.150Z,3496.00
2018-07-12T05:09:35.009Z,3652.00
2018-07-12T05:10:34.931Z,3540.00
2018-07-12T05:11:34.862Z,3496.00
2018-07-12T05:14:16.998Z,3756.00
2018-07-12T05:15:16.799Z,3868.00
2018-07-12T05:16:16.799Z,3820.00
2018-07-12T05:17:17.655Z,3940.00
2018-07-12T05:18:16.568Z,3900.00
2018-07-12T05:19:16.560Z,3704.00
2018-07-12T05:20:16.397Z,3812.00
2018-07-12T05:21:16.343Z,4144.00
2018-07-12T05:22:16.250Z,4140.00
2018-07-12T05:24:58.392Z,3936.00
2018-07-12T05:25:58.523Z,4076.00
2018-07-12T05:26:58.217Z,4388.00
2018-07-12T05:27:59.296Z,4536.00
2018-07-12T05:28:58.088Z,4532.00
2018-07-12T05:31:39.881Z,4552.00
2018-07-12T05:32:40.239Z,4448.00
2018-07-12T05:35:04.387Z,4480.00
2018-07-12T05:53:20.194Z,5808.00
2018-07-12T05:54:20.249Z,6192.00
2018-07-12T06:00:01.595Z,9940.00
2018-07-12T06:01:01.533Z,9724.00
2018-07-12T06:03:43.406Z,9348.00
2018-07-12T06:04:44.508Z,9208.00
2018-07-12T06:05:43.267Z,9204.00
2018-07-12T06:06:43.176Z,9376.00
2018-07-12T06:07:43.094Z,8716.00
2018-07-12T06:08:43.026Z,8204.00
2018-07-12T06:09:42.984Z,7772.00
2018-07-12T06:10:43.901Z,7676.00
2018-07-12T06:11:42.773Z,7720.00
2018-07-12T06:12:42.716Z,8284.00
2018-07-12T06:13:42.617Z,8876.00
2018-07-12T06:14:42.557Z,8832.00
2018-07-12T06:15:42.493Z,8140.00
2018-07-12T06:16:43.415Z,7848.00
2018-07-12T06:17:42.321Z,8448.00
2018-07-12T06:18:42.237Z,9192.00
2018-07-12T06:19:42.167Z,10212.00
2018-07-12T06:20:42.089Z,11104.00
2018-07-12T06:21:42.021Z,12076.00
2018-07-12T06:22:41.933Z,12180.00
2018-07-12T06:23:41.840Z,11844.00
2018-07-12T06:24:41.801Z,11644.00
2018-07-12T06:25:41.683Z,10912.00
2018-07-12T06:26:41.664Z,10408.00
2018-07-12T06:27:41.530Z,11008.00
2018-07-12T06:28:41.473Z,11508.00
2018-07-12T06:29:41.385Z,11148.00
2018-07-12T06:30:41.295Z,10664.00
2018-07-12T06:31:41.226Z,10000.00
2018-07-12T06:32:41.207Z,9780.00
2018-07-12T06:33:41.266Z,10620.00
2018-07-12T06:34:41.094Z,11120.00
2018-07-12T06:35:41.112Z,12028.00
2018-07-12T06:36:40.872Z,12792.00
2018-07-12T06:37:40.757Z,13032.00
2018-07-12T06:38:40.667Z,12972.00
2018-07-12T06:39:40.590Z,12668.00
2018-07-12T06:40:40.512Z,14784.00
2018-07-12T06:41:40.498Z,13648.00
2018-07-12T06:42:40.423Z,12972.00
2018-07-12T06:43:40.282Z,12400.00
2018-07-12T06:44:40.198Z,12176.00
2018-07-12T06:45:40.116Z,11704.00
2018-07-12T06:46:40.050Z,12860.00
2018-07-12T06:47:39.991Z,13680.00
2018-07-12T06:48:39.903Z,15968.00
2018-07-12T06:49:39.818Z,14376.00
2018-07-12T06:50:39.734Z,16448.00
2018-07-12T06:51:39.689Z,14848.00
2018-07-12T06:52:39.613Z,12992.00
2018-07-12T06:53:39.517Z,13788.00
2018-07-12T06:56:21.400Z,12892.00
2018-07-12T06:57:21.350Z,12508.00
2018-07-12T06:58:21.321Z,11864.00
2018-07-12T06:59:21.193Z,12524.00
2018-07-12T07:00:21.109Z,11192.00
2018-07-12T07:03:03.530Z,15648.00
2018-07-12T07:04:03.334Z,12720.00
2018-07-12T07:05:03.245Z,12176.00
2018-07-12T07:07:45.452Z,13348.00
2018-07-12T07:08:45.332Z,14064.00
2018-07-12T07:09:45.273Z,20224.00
2018-07-12T07:12:27.446Z,19904.00
2018-07-12T07:13:27.380Z,12972.00
2018-07-12T07:14:27.267Z,15872.00
2018-07-12T07:15:27.209Z,14452.00
2018-07-12T07:16:27.118Z,15068.00
2018-07-12T07:17:27.047Z,15324.00
2018-07-12T07:18:27.154Z,23872.00
2018-07-12T07:19:26.893Z,25152.00
2018-07-12T07:20:26.826Z,18432.00
2018-07-12T07:21:26.761Z,18528.00
2018-07-12T07:22:26.648Z,26944.00
2018-07-12T07:23:26.617Z,25760.00
2018-07-12T07:24:26.503Z,27808.00
2018-07-12T07:25:26.428Z,27648.00
2018-07-12T07:26:26.353Z,27392.00
2018-07-12T07:27:26.300Z,27904.00
2018-07-12T07:28:26.223Z,15576.00
2018-07-12T07:31:08.433Z,11444.00
2018-07-12T07:32:08.374Z,12636.00
2018-07-12T07:33:08.290Z,16960.00
2018-07-12T07:34:08.604Z,25632.00
2018-07-12T07:35:08.128Z,27168.00
2018-07-12T07:36:08.057Z,26592.00
2018-07-12T07:37:07.986Z,17472.00
2018-07-12T07:38:07.899Z,14764.00
2018-07-12T07:39:07.847Z,27424.00
2018-07-12T07:40:07.766Z,30624.00
2018-07-12T07:41:07.685Z,31936.00
2018-07-12T07:43:49.978Z,34016.00
2018-07-12T07:46:31.949Z,35200.00
2018-07-12T07:47:31.859Z,35040.00
2018-07-12T07:48:31.805Z,35136.00
2018-07-12T07:49:31.725Z,36896.00
2018-07-12T07:50:31.637Z,21472.00
2018-07-12T07:53:25.920Z,35872.00
2018-07-12T07:54:25.892Z,36960.00
2018-07-12T07:55:25.802Z,38176.00
2018-07-12T07:59:32.466Z,26080.00
2018-07-12T08:00:32.385Z,15480.00
2018-07-12T08:01:32.304Z,12588.00
2018-07-12T08:02:32.226Z,12032.00
2018-07-12T08:03:32.150Z,12104.00
2018-07-12T08:04:32.107Z,11908.00
2018-07-12T08:05:32.035Z,11512.00
2018-07-12T08:06:31.941Z,12056.00
2018-07-12T08:07:31.862Z,14328.00
2018-07-12T08:08:31.794Z,30336.00
2018-07-12T08:09:31.726Z,27744.00
2018-07-12T08:10:31.671Z,19328.00
2018-07-12T08:11:31.578Z,19328.00
2018-07-12T08:12:31.503Z,19616.00
2018-07-12T08:13:31.426Z,16896.00
2018-07-12T08:16:13.496Z,22432.00
2018-07-12T08:18:55.442Z,49152.00
2018-07-12T08:19:55.373Z,43520.00
2018-07-12T08:20:55.309Z,45248.00
2018-07-12T08:21:55.243Z,44832.00
2018-07-12T08:22:55.147Z,30400.00
2018-07-12T08:23:55.185Z,27456.00
2018-07-12T08:24:55.002Z,47392.00
2018-07-12T08:25:54.968Z,29568.00
2018-07-12T08:26:54.891Z,20608.00
2018-07-12T08:29:36.939Z,21760.00
2018-07-12T08:30:36.915Z,41856.00
2018-07-12T08:31:36.821Z,36992.00
2018-07-12T08:32:36.752Z,39456.00
2018-07-12T08:33:36.661Z,48640.00
2018-07-12T08:34:36.608Z,44608.00
2018-07-12T08:35:36.517Z,45760.00
2018-07-12T08:36:36.480Z,52000.00
2018-07-12T08:37:36.370Z,23680.00
2018-07-12T08:38:36.305Z,45408.00
2018-07-12T08:39:36.242Z,45568.00
2018-07-12T08:40:36.214Z,50720.00
2018-07-12T08:41:36.111Z,30624.00
2018-07-12T08:44:17.947Z,51552.00
2018-07-12T08:45:17.890Z,46656.00
2018-07-12T08:46:17.849Z,53856.00
2018-07-12T08:47:18.762Z,56032.00
2018-07-12T08:48:17.687Z,42240.00
2018-07-12T08:49:17.594Z,37056.00
2018-07-12T08:50:17.542Z,31200.00
2018-07-12T08:51:17.484Z,18240.00
2018-07-12T08:52:17.449Z,21664.00
2018-07-12T08:54:59.456Z,18336.00
2018-07-12T08:57:41.530Z,55040.00
2018-07-12T08:58:41.387Z,52800.00
2018-07-12T08:59:41.385Z,51680.00
2018-07-12T09:02:23.490Z,52224.00
2018-07-12T09:03:23.460Z,53600.00
2018-07-12T09:04:23.341Z,49312.00
2018-07-12T09:05:23.258Z,49984.00
2018-07-12T09:06:23.192Z,46432.00
2018-07-12T09:07:23.143Z,58016.00
2018-07-12T09:08:23.059Z,25888.00
2018-07-12T09:11:04.955Z,57504.00
2018-07-12T09:12:04.899Z,59712.00
2018-07-12T09:13:04.857Z,22528.00
2018-07-12T09:14:04.777Z,52672.00
2018-07-12T09:15:04.683Z,62816.00
2018-07-12T09:16:04.656Z,57056.00
2018-07-12T09:17:04.548Z,46432.00
2018-07-12T09:18:04.516Z,48192.00
2018-07-12T09:19:04.412Z,49536.00
2018-07-12T09:20:04.358Z,54336.00
2018-07-12T09:21:04.279Z,62144.00
2018-07-12T09:22:04.233Z,64320.00
2018-07-12T09:23:04.172Z,64320.00
2018-07-12T09:24:04.103Z,61088.00
2018-07-12T09:25:04.000Z,50752.00
2018-07-12T09:26:03.966Z,21536.00
2018-07-12T09:27:03.871Z,16800.00
2018-07-12T09:29:45.993Z,16440.00
2018-07-12T09:30:45.929Z,62496.00
2018-07-12T09:31:45.828Z,65760.00
2018-07-12T09:34:28.066Z,64608.00
2018-07-12T09:35:27.967Z,64224.00
2018-07-12T09:36:27.858Z,60864.00
2018-07-12T09:37:27.775Z,34464.00
2018-07-12T09:38:27.741Z,65024.00
2018-07-12T09:39:29.623Z,56928.00
2018-07-12T09:40:27.579Z,22784.00
2018-07-12T09:43:09.475Z,73120.00
2018-07-12T09:44:09.431Z,60448.00
2018-07-12T09:45:09.342Z,66240.00
2018-07-12T09:46:09.299Z,57888.00
2018-07-12T09:47:09.224Z,28896.00
2018-07-12T09:48:09.131Z,27968.00
2018-07-12T09:49:09.162Z,32992.00
2018-07-12T09:50:09.022Z,53152.00
2018-07-12T09:51:08.929Z,61440.00
2018-07-12T09:52:08.920Z,30176.00
2018-07-12T09:53:08.788Z,64896.00
2018-07-12T09:54:08.736Z,67936.00
2018-07-12T09:55:08.663Z,69248.00
2018-07-12T09:56:08.731Z,71648.00
2018-07-12T09:57:08.548Z,73632.00
2018-07-12T09:59:50.495Z,33312.00
2018-07-12T10:00:50.432Z,18304.00
2018-07-12T10:01:50.332Z,16468.00
2018-07-12T10:02:50.323Z,15812.00
2018-07-12T10:03:50.203Z,15456.00
2018-07-12T10:04:50.162Z,15428.00
2018-07-12T10:05:50.098Z,15508.00
2018-07-12T10:08:32.012Z,20032.00
2018-07-12T10:09:31.934Z,22656.00
2018-07-12T10:10:31.882Z,39552.00
2018-07-12T10:11:32.829Z,36512.00
2018-07-12T10:12:31.738Z,61440.00
2018-07-12T10:13:31.654Z,55936.00
2018-07-12T10:14:31.581Z,165376.00
2018-07-12T10:17:13.536Z,72256.00
2018-07-12T10:19:55.559Z,80896.00
2018-07-12T10:20:55.437Z,76128.00
2018-07-12T10:21:55.362Z,35520.00
2018-07-12T10:22:55.324Z,37056.00
2018-07-12T10:23:55.360Z,59808.00
2018-07-12T10:26:37.491Z,76800.00
2018-07-12T10:27:37.483Z,72000.00
2018-07-12T10:28:37.392Z,28512.00
2018-07-12T10:29:37.304Z,79232.00
2018-07-12T10:30:37.233Z,74880.00
2018-07-12T10:31:37.172Z,36864.00
2018-07-12T10:32:37.090Z,20544.00
2018-07-12T10:33:37.056Z,18240.00
2018-07-12T10:34:36.969Z,15884.00
2018-07-12T10:35:36.906Z,13968.00
2018-07-12T10:36:36.867Z,12688.00
2018-07-12T10:37:36.760Z,13124.00
2018-07-12T10:38:36.720Z,14336.00
2018-07-12T10:39:36.647Z,16136.00
2018-07-12T10:40:36.561Z,79840.00
2018-07-12T10:41:36.502Z,85024.00
2018-07-12T10:42:36.435Z,84832.00
2018-07-12T10:43:36.341Z,78912.00
2018-07-12T10:44:36.319Z,61344.00
2018-07-12T10:45:36.206Z,32480.00
2018-07-12T10:46:36.138Z,60416.00
2018-07-12T10:47:36.090Z,86048.00
2018-07-12T10:48:36.000Z,42048.00
2018-07-12T10:49:35.967Z,54112.00
2018-07-12T10:50:35.881Z,56416.00
2018-07-12T10:51:35.823Z,80704.00
2018-07-12T10:52:35.724Z,80000.00
2018-07-12T10:55:18.047Z,84320.00
2018-07-12T10:56:17.941Z,92064.00
2018-07-12T10:57:17.871Z,91296.00
2018-07-12T11:00:00.030Z,17792.00
2018-07-12T11:02:42.008Z,17408.00
2018-07-12T11:03:41.951Z,18752.00
2018-07-12T11:04:41.947Z,14504.00
2018-07-12T11:05:41.919Z,12772.00
2018-07-12T11:06:41.729Z,12000.00
2018-07-12T11:07:41.700Z,12688.00
2018-07-12T11:08:41.596Z,16168.00
2018-07-12T11:09:41.546Z,18624.00
2018-07-12T11:10:41.490Z,55840.00
2018-07-12T11:11:41.412Z,81120.00
2018-07-12T11:12:41.331Z,63136.00
2018-07-12T11:13:41.269Z,87648.00
2018-07-12T11:14:41.193Z,90816.00
2018-07-12T11:15:41.187Z,82272.00
2018-07-12T11:16:41.089Z,79392.00
2018-07-12T11:17:40.982Z,74848.00
2018-07-12T11:18:40.914Z,73536.00
2018-07-12T11:19:40.882Z,19008.00
2018-07-12T11:20:40.804Z,17600.00
2018-07-12T11:21:40.747Z,17408.00
2018-07-12T11:22:40.647Z,16864.00
2018-07-12T11:23:40.612Z,15180.00
2018-07-12T11:24:40.517Z,14608.00
2018-07-12T11:25:40.465Z,16044.00
2018-07-12T11:26:40.415Z,21216.00
2018-07-12T11:27:40.360Z,21312.00
2018-07-12T11:28:40.238Z,92480.00
2018-07-12T11:29:40.254Z,92576.00
2018-07-12T11:30:40.104Z,86912.00
2018-07-12T11:31:41.060Z,80480.00
2018-07-12T11:32:39.958Z,87488.00
2018-07-12T11:33:39.913Z,88512.00
2018-07-12T11:34:39.839Z,85792.00
2018-07-12T11:35:39.782Z,85248.00
2018-07-12T11:36:39.730Z,87488.00
2018-07-12T11:39:21.545Z,83744.00
2018-07-12T11:40:21.461Z,33504.00
2018-07-12T11:41:21.460Z,40256.00
2018-07-12T11:42:21.314Z,66016.00
2018-07-12T11:43:21.246Z,17472.00
2018-07-12T11:44:21.196Z,45760.00
2018-07-12T11:45:21.139Z,14100.00
2018-07-12T11:46:21.064Z,13456.00
2018-07-12T11:47:20.999Z,14492.00
2018-07-12T11:50:03.033Z,87552.00
2018-07-12T11:52:45.178Z,89088.00
2018-07-12T11:53:44.949Z,89632.00
2018-07-12T11:54:44.921Z,88544.00
2018-07-12T11:55:44.856Z,92672.00
2018-07-12T11:56:44.746Z,93184.00
2018-07-12T11:57:44.727Z,89600.00
2018-07-12T11:58:44.621Z,73696.00
2018-07-12T11:59:44.561Z,35840.00
2018-07-12T12:00:44.494Z,19680.00
2018-07-12T12:01:44.586Z,19584.00
2018-07-12T12:02:44.364Z,17856.00
2018-07-12T12:03:45.321Z,15644.00
2018-07-12T12:04:44.267Z,14676.00
2018-07-12T12:07:26.547Z,15876.00
2018-07-12T12:08:26.466Z,15616.00
2018-07-12T12:09:26.428Z,16400.00
2018-07-12T12:10:26.336Z,16976.00
2018-07-12T12:11:26.249Z,16868.00
2018-07-12T12:12:26.335Z,16432.00
2018-07-12T12:13:26.120Z,16216.00
2018-07-12T12:14:26.084Z,15668.00
2018-07-12T12:15:25.971Z,15144.00
2018-07-12T12:18:08.054Z,13868.00
2018-07-12T12:19:08.014Z,13416.00
2018-07-12T12:20:07.919Z,13104.00
2018-07-12T12:21:07.816Z,13184.00
2018-07-12T12:22:07.758Z,13204.00
2018-07-12T12:23:07.695Z,13536.00
2018-07-12T12:24:07.618Z,14116.00
2018-07-12T12:25:07.601Z,14832.00
2018-07-12T12:26:07.470Z,14088.00
2018-07-12T12:27:07.404Z,12684.00
2018-07-12T12:28:07.478Z,11396.00
2018-07-12T12:29:07.305Z,10300.00
2018-07-12T12:30:07.179Z,9440.00
2018-07-12T12:32:49.045Z,9376.00
2018-07-12T12:33:49.004Z,9536.00
2018-07-12T12:34:48.924Z,9896.00
2018-07-12T12:35:48.845Z,9036.00
2018-07-12T12:38:31.058Z,11568.00
2018-07-12T12:39:31.003Z,11080.00
2018-07-12T12:42:13.064Z,11296.00
2018-07-12T12:44:55.064Z,12032.00
2018-07-12T12:45:54.979Z,12644.00
2018-07-12T12:46:54.918Z,13504.00
2018-07-12T12:47:54.835Z,13600.00
2018-07-12T12:48:54.773Z,12800.00
2018-07-12T12:49:54.720Z,12032.00
2018-07-12T12:50:54.681Z,10424.00
2018-07-12T12:51:54.545Z,9624.00
2018-07-12T12:52:54.482Z,9360.00
2018-07-12T12:53:54.428Z,9472.00
2018-07-12T12:54:54.319Z,9704.00
2018-07-12T12:55:54.281Z,9824.00
2018-07-12T12:56:54.182Z,9408.00
2018-07-12T12:57:54.121Z,9140.00
2018-07-12T12:58:54.049Z,8592.00
2018-07-12T12:59:53.981Z,8388.00
2018-07-12T13:00:53.906Z,7780.00
2018-07-12T13:03:36.049Z,7672.00
2018-07-12T13:04:35.983Z,7200.00
2018-07-12T13:05:35.945Z,6880.00
2018-07-12T13:06:35.854Z,7192.00
2018-07-12T13:07:35.774Z,7216.00
2018-07-12T13:08:35.716Z,7444.00
2018-07-12T13:09:35.630Z,7576.00
2018-07-12T13:10:35.571Z,7684.00
2018-07-12T13:11:35.471Z,8264.00
2018-07-12T13:12:35.402Z,7924.00
2018-07-12T13:13:35.340Z,7680.00
2018-07-12T13:14:35.271Z,7116.00
2018-07-12T13:15:35.188Z,6372.00
2018-07-12T13:16:35.145Z,6336.00
2018-07-12T13:17:35.040Z,6516.00
2018-07-12T13:18:34.990Z,7432.00
2018-07-12T13:19:34.892Z,7540.00
2018-07-12T13:20:34.897Z,7424.00
2018-07-12T13:21:34.757Z,7400.00
2018-07-12T13:22:34.719Z,7140.00
2018-07-12T13:23:34.615Z,7024.00
2018-07-12T13:24:34.546Z,6964.00
2018-07-12T13:25:34.465Z,6896.00
2018-07-12T13:26:34.435Z,6616.00
2018-07-12T13:27:34.301Z,6364.00
2018-07-12T13:28:34.247Z,6344.00
2018-07-12T13:29:34.152Z,6868.00
2018-07-12T13:32:16.095Z,7108.00
2018-07-12T13:33:16.023Z,7188.00
2018-07-12T13:34:15.932Z,7324.00
2018-07-12T13:35:15.857Z,7616.00
2018-07-12T13:36:15.791Z,7480.00
2018-07-12T13:37:15.897Z,6940.00
2018-07-12T13:38:15.877Z,6600.00
2018-07-12T13:39:15.860Z,6520.00
2018-07-12T13:40:15.770Z,6512.00
2018-07-12T13:41:15.409Z,6444.00
2018-07-12T13:42:15.380Z,6428.00
2018-07-12T13:44:57.599Z,6344.00
2018-07-12T13:45:57.526Z,6264.00
2018-07-12T13:46:57.482Z,6184.00
2018-07-12T13:47:57.383Z,6388.00
2018-07-12T13:48:57.283Z,5964.00
2018-07-12T13:49:57.229Z,5632.00
2018-07-12T13:50:57.140Z,5772.00
2018-07-12T13:51:57.097Z,5820.00
2018-07-12T13:52:57.022Z,5748.00
2018-07-12T13:53:56.915Z,5664.00
2018-07-12T13:54:56.864Z,5588.00
2018-07-12T13:55:56.783Z,5472.00
2018-07-12T13:56:56.692Z,5436.00
2018-07-12T13:57:57.668Z,5532.00
2018-07-12T13:58:56.547Z,5508.00
2018-07-12T13:59:56.509Z,5748.00
2018-07-12T14:00:56.410Z,5776.00
2018-07-12T14:01:56.352Z,5724.00
2018-07-12T14:02:56.270Z,5700.00
2018-07-12T14:03:57.221Z,5632.00
2018-07-12T14:04:56.132Z,5708.00
2018-07-12T14:05:56.042Z,5580.00
2018-07-12T14:06:55.972Z,5208.00
2018-07-12T14:07:55.894Z,4880.00
2018-07-12T14:08:55.834Z,4592.00
2018-07-12T14:09:55.779Z,4396.00
2018-07-12T14:10:55.665Z,4292.00
2018-07-12T14:11:55.602Z,4316.00
2018-07-12T14:12:55.526Z,4452.00
2018-07-12T14:13:55.462Z,4604.00
2018-07-12T14:14:55.373Z,4732.00
2018-07-12T14:15:55.428Z,4940.00
2018-07-12T14:16:55.218Z,5212.00
2018-07-12T14:19:37.116Z,5608.00
2018-07-12T14:20:38.033Z,5508.00
2018-07-12T14:21:36.927Z,5428.00
2018-07-12T14:22:36.868Z,5360.00
2018-07-12T14:23:36.784Z,5248.00
2018-07-12T14:24:36.738Z,5104.00
2018-07-12T14:25:36.643Z,5084.00
2018-07-12T14:26:36.576Z,5300.00
2018-07-12T14:27:36.492Z,5712.00
2018-07-12T14:30:18.612Z,4924.00
2018-07-12T14:31:18.518Z,4612.00
2018-07-12T14:32:18.431Z,4500.00
2018-07-12T14:33:18.385Z,4332.00
2018-07-12T14:34:18.329Z,4236.00
2018-07-12T14:35:18.257Z,4132.00